createdAt,value
2018-04-22T00:04:49.212Z,3.36
2018-04-22T00:14:42.817Z,3.36
2018-04-22T00:24:40.153Z,3.36
2018-04-22T00:34:37.490Z,3.36
2018-04-22T00:44:33.035Z,3.36
2018-04-22T00:54:30.386Z,3.36
2018-04-22T01:04:27.766Z,3.35
2018-04-22T01:14:23.316Z,3.35
2018-04-22T01:24:19.444Z,3.35
2018-04-22T01:34:17.137Z,3.35
2018-04-22T01:44:15.479Z,3.34
2018-04-22T01:54:11.915Z,3.34
2018-04-22T02:04:06.509Z,3.34
2018-04-22T02:14:02.116Z,3.34
2018-04-22T02:23:58.707Z,3.34
2018-04-22T02:33:53.810Z,3.34
2018-04-22T02:43:49.732Z,3.34
2018-04-22T02:53:47.769Z,3.34
2018-04-22T03:03:45.729Z,3.34
2018-04-22T03:13:40.561Z,3.34
2018-04-22T03:23:35.887Z,3.34
2018-04-22T03:33:33.294Z,3.34
2018-04-22T03:43:29.071Z,3.34
2018-04-22T03:53:24.767Z,3.34
2018-04-22T04:03:22.154Z,3.34
2018-04-22T04:13:19.201Z,3.34
2018-04-22T04:23:15.807Z,3.34
2018-04-22T04:33:12.097Z,3.34
2018-04-22T04:43:06.567Z,3.34
2018-04-22T04:53:03.542Z,3.34
2018-04-22T05:02:58.654Z,3.35
2018-04-22T05:12:55.147Z,3.36
2018-04-22T05:22:49.365Z,3.36
2018-04-22T05:32:45.106Z,3.37
2018-04-22T05:42:42.558Z,3.38
2018-04-22T05:52:39.888Z,3.39
2018-04-22T06:02:35.800Z,3.39
2018-04-22T06:12:33.085Z,3.39
2018-04-22T06:22:31.500Z,3.40
2018-04-22T06:32:28.307Z,3.41
2018-04-22T06:42:25.865Z,3.42
2018-04-22T06:52:25.540Z,3.42
2018-04-22T07:02:24.487Z,3.43
2018-04-22T07:12:22.746Z,3.43
2018-04-22T07:22:18.435Z,3.44
2018-04-22T07:31:56.423Z,3.44
2018-04-22T07:41:33.987Z,3.46
2018-04-22T07:51:11.544Z,3.44
2018-04-22T08:00:48.943Z,3.44
2018-04-22T08:10:30.929Z,3.43
2018-04-22T08:20:00.534Z,3.43
2018-04-22T08:29:38.789Z,3.43
2018-04-22T08:39:16.522Z,3.43
2018-04-22T08:48:54.026Z,3.43
2018-04-22T08:58:32.026Z,3.43
2018-04-22T09:08:09.430Z,3.43
2018-04-22T09:17:47.446Z,3.43
2018-04-22T09:27:24.113Z,3.43
2018-04-22T09:37:01.972Z,3.43
2018-04-22T09:46:39.949Z,3.43
2018-04-22T09:56:21.746Z,3.43
2018-04-22T10:05:50.193Z,3.43
2018-04-22T10:15:27.874Z,3.43
2018-04-22T10:25:06.006Z,3.43
2018-04-22T10:34:44.097Z,3.43
2018-04-22T10:44:21.581Z,3.43
2018-04-22T10:54:00.050Z,3.43
2018-04-22T11:03:37.463Z,3.43
2018-04-22T11:13:19.570Z,3.43
2018-04-22T11:22:55.273Z,3.43
2018-04-22T11:32:32.364Z,3.43
2018-04-22T11:42:11.771Z,3.43
2018-04-22T11:51:49.838Z,3.43
2018-04-22T12:01:28.527Z,3.43
2018-04-22T12:11:02.521Z,3.43
2018-04-22T12:20:40.314Z,3.43
2018-04-22T12:30:17.963Z,3.43
2018-04-22T12:39:55.688Z,3.43
2018-04-22T12:49:33.358Z,3.43
2018-04-22T12:59:12.985Z,3.43
2018-04-22T13:08:47.331Z,3.43
2018-04-22T13:18:22.367Z,3.43
2018-04-22T13:28:01.692Z,3.43
2018-04-22T13:37:42.518Z,3.43
2018-04-22T13:47:17.873Z,3.43
2018-04-22T13:56:52.281Z,3.43
2018-04-22T14:06:27.944Z,3.43
2018-04-22T14:16:16.846Z,3.43
2018-04-22T14:25:50.900Z,3.43
2018-04-22T14:35:25.608Z,3.43
2018-04-22T14:44:52.558Z,3.43
2018-04-22T14:54:31.642Z,3.43
2018-04-22T15:04:17.649Z,3.43
2018-04-22T15:13:53.977Z,3.43
2018-04-22T15:23:31.588Z,3.43
2018-04-22T15:32:52.863Z,3.42
2018-04-22T15:42:30.681Z,3.43
2018-04-22T15:52:14.826Z,3.43
2018-04-22T16:01:44.193Z,3.42
2018-04-22T16:11:17.502Z,3.42
2018-04-22T16:20:52.444Z,3.42
2018-04-22T16:30:28.581Z,3.42
2018-04-22T16:40:05.857Z,3.42
2018-04-22T16:49:41.506Z,3.42
2018-04-22T16:59:18.318Z,3.42
2018-04-22T17:08:54.652Z,3.42
2018-04-22T17:18:31.039Z,3.42
2018-04-22T17:28:07.262Z,3.42
2018-04-22T17:37:43.438Z,3.42
2018-04-22T17:47:19.477Z,3.42
2018-04-22T17:57:14.759Z,3.41
2018-04-22T18:07:04.014Z,3.41
2018-04-22T18:16:55.412Z,3.41
2018-04-22T18:26:50.104Z,3.40
2018-04-22T18:36:46.090Z,3.40
2018-04-22T18:46:40.572Z,3.40
2018-04-22T18:56:38.334Z,3.40
2018-04-22T19:06:34.961Z,3.40
2018-04-22T19:16:30.723Z,3.40
2018-04-22T19:26:22.809Z,3.39
2018-04-22T19:36:18.783Z,3.39
2018-04-22T19:46:14.152Z,3.39
2018-04-22T19:56:06.556Z,3.39
2018-04-22T20:06:00.652Z,3.39
2018-04-22T20:15:56.535Z,3.39
2018-04-22T20:25:54.062Z,3.39
2018-04-22T20:35:46.822Z,3.39
2018-04-22T20:45:41.059Z,3.39
2018-04-22T20:55:37.510Z,3.39
2018-04-22T21:05:33.873Z,3.39
2018-04-22T21:15:28.285Z,3.39
2018-04-22T21:25:24.557Z,3.39
2018-04-22T21:35:21.627Z,3.38
2018-04-22T21:45:16.289Z,3.38
2018-04-22T21:55:13.427Z,3.38
2018-04-22T22:05:11.849Z,3.38
2018-04-22T22:15:09.480Z,3.38
2018-04-22T22:25:03.666Z,3.37
2018-04-22T22:34:58.717Z,3.37
2018-04-22T22:44:55.506Z,3.37
2018-04-22T22:54:51.231Z,3.37
2018-04-22T23:04:48.217Z,3.37
2018-04-22T23:14:43.975Z,3.37
2018-04-22T23:24:40.796Z,3.37
2018-04-22T23:34:38.134Z,3.37
2018-04-22T23:44:33.598Z,3.37
2018-04-22T23:54:29.490Z,3.36
